Time;durP1;ratioP1;P1;durP2;ratioP2;P2;SDS_P1;SDS_P2;PMS_P1;PMS_P2;Temp;Humidity;BMP_temperature;BMP_pressure;BME280_temperature;BME280_humidity;BME280_pressure;Samples;Min_cycle;Max_cycle;Signal;HPM_P1;HPM_P2
2022/09/13 00:00:59;;;;;;;10.73;9.48;;;;;;;14.88;100.00;99952.00;4914028;29;20202;-71
2022/09/13 00:03:26;;;;;;;12.18;9.30;;;;;;;14.91;100.00;99940.97;4910649;29;20324;-71
2022/09/13 00:05:53;;;;;;;13.80;9.25;;;;;;;14.88;100.00;99946.59;4899043;29;20296;-71
2022/09/13 00:08:20;;;;;;;13.27;9.98;;;;;;;14.83;100.00;99948.78;4903860;29;20197;-72
2022/09/13 00:10:48;;;;;;;13.45;9.50;;;;;;;14.78;100.00;99958.09;4913889;29;20232;-71
2022/09/13 00:13:17;;;;;;;14.27;10.13;;;;;;;14.73;100.00;99960.25;4911963;29;20281;-72
2022/09/13 00:15:44;;;;;;;14.40;10.45;;;;;;;14.66;100.00;99960.81;4904951;29;20202;-71
2022/09/13 00:18:11;;;;;;;11.73;9.88;;;;;;;14.56;100.00;99957.84;4910950;29;20599;-71
2022/09/13 00:20:38;;;;;;;13.63;9.07;;;;;;;14.61;100.00;99961.13;4910596;29;20214;-72
2022/09/13 00:23:04;;;;;;;11.93;10.30;;;;;;;14.50;100.00;99952.84;4906352;29;20235;-70
2022/09/13 00:25:31;;;;;;;14.32;10.40;;;;;;;14.38;100.00;99954.53;4903434;29;20288;-71
2022/09/13 00:27:59;;;;;;;12.98;9.50;;;;;;;14.51;100.00;99949.13;4901134;29;20217;-71
2022/09/13 00:30:25;;;;;;;16.65;10.65;;;;;;;14.41;100.00;99938.06;4904129;29;20212;-73
2022/09/13 00:32:52;;;;;;;12.55;9.52;;;;;;;14.44;100.00;99940.56;4904833;29;20323;-70
2022/09/13 00:35:19;;;;;;;11.80;10.13;;;;;;;14.50;100.00;99933.88;4905512;29;20204;-72
2022/09/13 00:37:45;;;;;;;14.55;12.38;;;;;;;14.49;100.00;99941.09;4904791;29;20208;-72
2022/09/13 00:40:12;;;;;;;12.35;9.70;;;;;;;14.55;100.00;99931.72;4908910;29;20574;-71
2022/09/13 00:42:38;;;;;;;12.35;10.20;;;;;;;14.43;100.00;99938.84;4906917;29;20237;-71
2022/09/13 00:45:16;;;;;;;13.40;11.90;;;;;;;14.43;100.00;99940.69;4899441;29;20206;-71
2022/09/13 00:47:48;;;;;;;14.07;10.55;;;;;;;14.33;100.00;99946.72;4899812;29;20210;-72
2022/09/13 00:50:20;;;;;;;12.65;11.05;;;;;;;14.46;100.00;99937.75;4901748;29;20213;-71
2022/09/13 00:52:54;;;;;;;13.32;10.65;;;;;;;14.39;100.00;99932.75;4904904;29;20233;-71
2022/09/13 00:55:26;;;;;;;12.65;11.35;;;;;;;14.41;100.00;99916.41;4907943;29;20566;-71
2022/09/13 00:57:55;;;;;;;17.48;11.35;;;;;;;14.38;100.00;99911.19;4911138;29;20208;-71
2022/09/13 01:00:23;;;;;;;14.80;11.93;;;;;;;14.39;100.00;99919.22;4914671;29;20616;-72
2022/09/13 01:02:55;;;;;;;15.55;11.60;;;;;;;14.38;100.00;99919.31;4901568;29;20668;-72
2022/09/13 01:05:26;;;;;;;12.75;10.95;;;;;;;14.31;100.00;99910.75;4905333;29;20219;-71
2022/09/13 01:07:53;;;;;;;15.02;11.38;;;;;;;14.31;100.00;99910.75;4904383;29;20209;-71
2022/09/13 01:10:22;;;;;;;17.30;10.82;;;;;;;14.31;100.00;99901.75;4904695;29;20201;-71
2022/09/13 01:12:55;;;;;;;16.23;10.65;;;;;;;14.29;100.00;99914.53;4910213;29;20259;-71
2022/09/13 01:15:21;;;;;;;14.90;11.88;;;;;;;14.31;100.00;99920.69;4901672;29;20210;-71
2022/09/13 01:17:52;;;;;;;17.10;12.23;;;;;;;14.33;100.00;99922.31;4897749;29;20202;-71
2022/09/13 01:20:18;;;;;;;14.57;11.80;;;;;;;14.24;100.00;99920.25;4904917;29;20202;-72
2022/09/13 01:23:15;;;;;;;15.38;11.43;;;;;;;14.26;100.00;99928.28;4903296;29;20220;-72
2022/09/13 01:26:14;;;;;;;14.80;9.77;;;;;;;14.27;100.00;99930.91;4894865;29;20201;-70
2022/09/13 01:29:06;;;;;;;13.13;10.55;;;;;;;14.17;100.00;99933.34;4899562;29;20209;-70
2022/09/13 01:31:38;;;;;;;13.00;11.13;;;;;;;14.12;100.00;99932.78;4911495;29;20215;-71
2022/09/13 01:34:17;;;;;;;14.13;10.90;;;;;;;14.09;100.00;99924.03;4903050;29;20217;-70
2022/09/13 01:36:58;;;;;;;12.98;10.40;;;;;;;14.08;100.00;99924.97;4906233;29;20212;-71
2022/09/13 01:39:38;;;;;;;15.55;9.52;;;;;;;14.06;100.00;99924.22;4906521;29;20209;-71
2022/09/13 01:42:16;;;;;;;14.00;10.70;;;;;;;14.03;100.00;99913.59;4908597;29;20239;-71
2022/09/13 01:44:56;;;;;;;10.90;9.80;;;;;;;13.87;100.00;99911.06;4897217;29;20712;-71
2022/09/13 01:47:27;;;;;;;13.02;10.15;;;;;;;13.78;100.00;99896.28;4912731;29;20239;-72
2022/09/13 01:50:07;;;;;;;16.50;11.93;;;;;;;13.75;100.00;99896.50;4906219;29;20201;-72
2022/09/13 01:52:42;;;;;;;14.07;10.18;;;;;;;13.77;100.00;99883.75;4904999;29;20241;-72
2022/09/13 01:55:18;;;;;;;12.23;9.82;;;;;;;13.75;100.00;99877.56;4900819;29;20238;-70
2022/09/13 01:57:51;;;;;;;12.85;10.88;;;;;;;13.73;100.00;99871.38;4910178;29;20571;-71
2022/09/13 02:00:18;;;;;;;14.75;11.60;;;;;;;13.86;100.00;99879.53;4913550;29;20217;-71
2022/09/13 02:02:50;;;;;;;14.50;12.68;;;;;;;13.86;100.00;99887.66;4899686;29;20706;-71
2022/09/13 02:05:22;;;;;;;18.15;11.93;;;;;;;13.92;100.00;99908.91;4905201;29;20210;-70
2022/09/13 02:07:54;;;;;;;14.98;12.07;;;;;;;14.05;100.00;99925.19;4911043;29;20218;-71
2022/09/13 02:10:25;;;;;;;14.10;11.20;;;;;;;14.00;100.00;99917.38;4905774;29;20211;-72
2022/09/13 02:12:53;;;;;;;14.43;10.85;;;;;;;13.88;100.00;99918.19;4910886;29;20232;-70
2022/09/13 02:15:23;;;;;;;14.85;10.95;;;;;;;13.81;100.00;99920.44;4907418;29;20217;-70
2022/09/13 02:18:00;;;;;;;11.88;10.60;;;;;;;13.74;100.00;99916.41;4907756;29;20199;-71
2022/09/13 02:20:30;;;;;;;13.00;10.95;;;;;;;13.63;100.00;99919.81;4909082;29;20207;-72
2022/09/13 02:23:01;;;;;;;12.15;10.52;;;;;;;13.63;100.00;99932.47;4901188;29;20649;-70
2022/09/13 02:25:31;;;;;;;15.38;10.10;;;;;;;13.59;100.00;99930.94;4901002;29;20213;-69
2022/09/13 02:28:01;;;;;;;13.13;9.85;;;;;;;13.59;100.00;99922.81;4907839;29;20220;-71
2022/09/13 02:30:31;;;;;;;14.30;10.68;;;;;;;13.59;100.00;99925.53;4910530;29;20222;-70
2022/09/13 02:33:05;;;;;;;13.68;10.25;;;;;;;13.56;100.00;99924.75;4909426;29;20227;-71
2022/09/13 02:35:35;;;;;;;11.40;9.60;;;;;;;13.60;100.00;99924.56;4911614;29;20214;-71
2022/09/13 02:38:05;;;;;;;12.50;10.20;;;;;;;13.60;100.00;99930.00;4902853;29;20199;-72
2022/09/13 02:40:37;;;;;;;13.93;9.93;;;;;;;13.59;100.00;99929.13;4902406;29;20206;-71
2022/09/13 02:43:08;;;;;;;11.52;10.30;;;;;;;13.56;100.00;99927.47;4907815;29;20222;-71
2022/09/13 02:45:46;;;;;;;14.73;10.10;;;;;;;13.59;100.00;99922.81;4903982;29;20208;-71
2022/09/13 02:48:20;;;;;;;11.73;10.10;;;;;;;13.61;100.00;99929.88;4900960;29;20641;-71
2022/09/13 02:50:59;;;;;;;13.90;10.80;;;;;;;13.68;100.00;99930.34;4900338;29;20219;-70
2022/09/13 02:53:31;;;;;;;12.00;10.70;;;;;;;13.65;100.00;99920.59;4905512;29;20765;-71
2022/09/13 02:56:06;;;;;;;12.55;10.02;;;;;;;13.68;100.00;99922.22;4903617;29;20219;-71
2022/09/13 02:58:39;;;;;;;14.68;10.15;;;;;;;13.77;100.00;99921.63;4907850;29;20250;-70
2022/09/13 03:01:05;;;;;;;16.20;10.25;;;;;;;13.83;100.00;99921.22;4904401;29;20223;-70
2022/09/13 03:03:33;;;;;;;12.10;10.02;;;;;;;13.90;100.00;99927.09;4908396;29;20218;-71
2022/09/13 03:06:00;;;;;;;11.27;8.82;;;;;;;13.90;100.00;99918.97;4900362;29;20207;-70
2022/09/13 03:08:28;;;;;;;11.32;9.63;;;;;;;13.90;100.00;99916.25;4900236;29;20229;-70
2022/09/13 03:11:09;;;;;;;10.98;9.70;;;;;;;13.95;100.00;99920.41;4907750;29;20213;-71
2022/09/13 03:14:10;;;;;;;11.90;9.68;;;;;;;13.82;100.00;99911.38;4902879;29;20240;-71
2022/09/13 03:16:48;;;;;;;13.90;10.35;;;;;;;13.95;100.00;99898.75;4887529;29;20203;-71
2022/09/13 03:19:28;;;;;;;14.77;9.20;;;;;;;14.01;100.00;99907.41;4898843;29;20212;-71
2022/09/13 03:22:12;;;;;;;13.50;10.70;;;;;;;14.01;100.00;99905.56;4911902;29;20736;-71
2022/09/13 03:24:48;;;;;;;13.32;10.65;;;;;;;14.05;100.00;99907.09;4897899;29;20200;-70
2022/09/13 03:27:25;;;;;;;12.02;10.65;;;;;;;14.09;100.00;99905.06;4904311;29;20697;-71
2022/09/13 03:29:58;;;;;;;12.38;9.95;;;;;;;14.09;100.00;99907.78;4900550;29;20210;-71
2022/09/13 03:32:35;;;;;;;14.77;9.35;;;;;;;14.14;100.00;99902.91;4901382;29;20236;-72
2022/09/13 03:35:10;;;;;;;13.05;9.95;;;;;;;14.16;100.00;99891.00;4913552;29;20204;-70
2022/09/13 03:37:48;;;;;;;11.80;9.45;;;;;;;14.23;100.00;99886.03;4903074;29;20199;-71
2022/09/13 03:40:21;;;;;;;12.68;9.30;;;;;;;14.18;100.00;99886.34;4907820;29;20219;-69
2022/09/13 03:42:52;;;;;;;11.68;10.48;;;;;;;14.12;100.00;99881.34;4915844;29;20234;-70
2022/09/13 03:45:23;;;;;;;14.88;11.20;;;;;;;14.11;100.00;99893.16;4928333;29;20212;-70
2022/09/13 03:47:51;;;;;;;11.25;9.73;;;;;;;14.16;100.00;99892.84;4922192;29;20217;-70
2022/09/13 03:50:22;;;;;;;14.90;9.95;;;;;;;14.17;100.00;99899.97;4917887;29;20210;-70
2022/09/13 03:52:53;;;;;;;11.43;9.63;;;;;;;14.14;100.00;99898.34;4923427;29;20247;-70
2022/09/13 03:55:21;;;;;;;14.32;12.00;;;;;;;13.93;100.00;99895.28;4914311;29;20211;-70
2022/09/13 03:57:48;;;;;;;23.02;17.20;;;;;;;14.00;100.00;99893.03;4909193;29;20218;-71
2022/09/13 04:00:17;;;;;;;14.73;11.18;;;;;;;14.06;100.00;99889.00;4902475;29;20202;-70
2022/09/13 04:02:43;;;;;;;14.50;10.07;;;;;;;13.97;100.00;99882.38;4907156;29;20314;-72
2022/09/13 04:05:10;;;;;;;16.23;9.82;;;;;;;14.05;100.00;99868.34;4902472;29;20209;-70
2022/09/13 04:07:38;;;;;;;15.95;10.95;;;;;;;14.13;100.00;99876.78;4908328;29;20252;-72
2022/09/13 04:10:07;;;;;;;11.75;10.18;;;;;;;14.16;100.00;99869.34;4909466;29;20212;-70
2022/09/13 11:58:48;;;;;;;15.20;12.23;;;;;;;20.56;100.00;99852.44;5316623;23;20498;-72
2022/09/13 12:01:20;;;;;;;14.20;12.50;;;;;;;20.46;100.00;99854.31;4900340;29;20435;-72
2022/09/13 12:03:54;;;;;;;14.33;12.73;;;;;;;20.47;100.00;99861.53;4900650;29;20890;-72
2022/09/13 12:06:25;;;;;;;14.83;12.10;;;;;;;20.71;100.00;99853.69;4900146;29;20450;-73
2022/09/13 12:08:57;;;;;;;12.83;11.40;;;;;;;20.68;100.00;99853.16;4900116;29;20501;-71
2022/09/13 12:11:29;;;;;;;12.50;11.03;;;;;;;20.80;100.00;99846.47;4899851;29;20431;-73
2022/09/13 12:13:59;;;;;;;16.30;12.30;;;;;;;21.07;100.00;99842.91;4899902;29;20427;-72
2022/09/13 12:16:30;;;;;;;16.57;11.73;;;;;;;21.06;100.00;99834.88;4900574;29;20442;-73
2022/09/13 12:18:59;;;;;;;13.50;11.90;;;;;;;21.56;100.00;99846.28;4900278;29;20467;-72
2022/09/13 12:21:32;;;;;;;13.20;11.23;;;;;;;21.84;100.00;99840.75;4900310;29;20988;-71
2022/09/13 12:24:04;;;;;;;12.57;11.27;;;;;;;22.56;100.00;99836.09;4900589;29;20442;-73
2022/09/13 12:26:36;;;;;;;11.73;10.47;;;;;;;23.10;100.00;99827.72;4894715;29;20459;-73
2022/09/13 12:29:13;;;;;;;11.03;9.93;;;;;;;23.21;100.00;99816.44;4904135;29;21023;-72
2022/09/13 12:31:40;;;;;;;11.80;10.53;;;;;;;23.25;99.14;99815.06;4883591;29;20439;-73
2022/09/13 12:34:11;;;;;;;13.20;10.20;;;;;;;23.05;99.54;99810.88;4900559;29;20834;-73
2022/09/13 12:36:58;;;;;;;15.80;10.60;;;;;;;22.60;100.00;99804.56;4901826;29;20513;-71
2022/09/13 12:39:55;;;;;;;11.87;10.10;;;;;;;22.90;100.00;99808.69;4902336;29;21006;-72
2022/09/13 12:42:55;;;;;;;10.47;9.37;;;;;;;22.91;100.00;99806.81;4901904;29;20427;-71
2022/09/13 12:45:39;;;;;;;14.83;9.60;;;;;;;22.76;100.00;99797.47;4903726;29;20439;-71
2022/09/13 12:48:30;;;;;;;10.47;9.37;;;;;;;22.86;100.00;99799.09;4903717;29;20491;-72
2022/09/13 12:51:07;;;;;;;10.53;9.50;;;;;;;22.53;99.92;99803.50;4901849;29;20437;-72
2022/09/13 12:54:08;;;;;;;11.63;10.40;;;;;;;22.06;100.00;99812.03;4884500;29;20450;-71
2022/09/13 12:56:46;;;;;;;13.80;10.10;;;;;;;21.90;100.00;99815.47;4898271;29;20465;-72
2022/09/13 12:59:37;;;;;;;14.60;9.60;;;;;;;22.10;100.00;99812.59;4899128;29;20479;-72
2022/09/13 13:02:25;;;;;;;13.57;11.30;;;;;;;21.78;100.00;99819.47;4899705;29;20436;-71
2022/09/13 13:04:56;;;;;;;14.70;13.23;;;;;;;21.20;100.00;99813.31;4900728;29;20450;-71
2022/09/13 13:07:24;;;;;;;14.47;11.70;;;;;;;21.33;100.00;99803.91;4883841;29;20451;-71
2022/09/13 13:09:52;;;;;;;13.07;10.70;;;;;;;21.35;100.00;99813.69;4901062;29;20454;-72
2022/09/13 13:12:28;;;;;;;13.50;11.90;;;;;;;21.38;100.00;99809.75;4884271;29;20459;-71
2022/09/13 13:14:55;;;;;;;13.97;11.87;;;;;;;21.47;100.00;99797.06;4901698;29;20450;-72
2022/09/13 13:17:43;;;;;;;14.67;12.47;;;;;;;21.70;100.00;99805.69;4900577;29;20447;-72
2022/09/13 13:20:52;;;;;;;13.67;11.17;;;;;;;22.33;100.00;99808.34;4900021;29;20431;-71
2022/09/13 13:23:24;;;;;;;14.10;11.27;;;;;;;22.83;98.33;99801.28;4841505;29;20845;-71
2022/09/13 13:25:59;;;;;;;11.80;10.60;;;;;;;22.92;93.54;99792.06;4841846;29;20984;-72
2022/09/13 13:29:05;;;;;;;11.47;10.37;;;;;;;23.15;89.60;99786.88;4841186;29;20592;-72
2022/09/13 13:31:38;;;;;;;12.27;11.00;;;;;;;23.06;91.92;99788.72;4844664;29;20434;-72
2022/09/13 13:34:30;;;;;;;13.90;11.70;;;;;;;22.81;92.49;99793.19;4841574;29;20814;-72
2022/09/13 13:37:00;;;;;;;12.50;11.00;;;;;;;22.26;96.78;99788.91;4842188;29;20502;-72
2022/09/13 13:39:36;;;;;;;12.10;10.57;;;;;;;22.45;97.97;99787.88;4828991;29;20846;-71
2022/09/13 13:42:12;;;;;;;12.23;10.90;;;;;;;22.54;97.16;99786.00;4845129;29;20824;-71
2022/09/13 13:45:17;;;;;;;11.90;10.57;;;;;;;22.85;96.76;99771.78;4844710;29;20449;-72
2022/09/13 13:48:19;;;;;;;12.73;10.87;;;;;;;22.94;96.87;99756.22;4839450;29;20493;-72
2022/09/13 13:51:21;;;;;;;13.47;10.07;;;;;;;22.97;92.90;99767.72;4844581;29;20460;-71
2022/09/13 13:53:53;;;;;;;13.70;9.67;;;;;;;22.76;96.23;99759.03;4808702;29;20441;-71
2022/09/13 13:56:28;;;;;;;12.03;10.77;;;;;;;22.99;94.14;99765.69;4813652;29;20430;-71
2022/09/13 13:59:00;;;;;;;10.23;9.27;;;;;;;23.22;93.20;99749.50;4817691;29;20475;-72
2022/09/13 14:01:29;;;;;;;11.20;9.30;;;;;;;23.57;89.23;99755.75;4844708;29;20456;-72
2022/09/13 14:04:39;;;;;;;10.20;9.20;;;;;;;23.53;89.53;99746.13;4844939;29;20454;-72
2022/09/13 14:07:31;;;;;;;10.73;9.47;;;;;;;23.47;89.37;99744.03;4789905;30;20586;-74
2022/09/13 14:10:05;;;;;;;10.77;9.67;;;;;;;23.41;90.80;99745.59;4790228;30;20413;-71
2022/09/13 14:12:50;;;;;;;9.70;8.60;;;;;;;22.92;94.29;99742.63;4790089;30;20868;-72
2022/09/13 14:15:34;;;;;;;10.87;9.57;;;;;;;22.76;97.14;99745.31;4789452;30;20444;-72
2022/09/13 14:18:41;;;;;;;14.53;8.70;;;;;;;22.64;98.23;99748.34;4789077;30;20468;-72
2022/09/13 14:21:20;;;;;;;10.83;9.47;;;;;;;22.49;100.00;99741.75;4790241;29;20456;-71
2022/09/13 14:23:48;;;;;;;9.87;8.90;;;;;;;22.45;100.00;99743.09;4797403;29;20452;-71
2022/09/13 14:26:15;;;;;;;11.90;9.03;;;;;;;22.38;100.00;99744.75;4845922;29;20734;-72
2022/09/13 14:28:42;;;;;;;10.50;9.40;;;;;;;22.15;100.00;99742.50;4843742;29;20497;-71
2022/09/13 14:31:18;;;;;;;14.13;9.17;;;;;;;22.11;100.00;99746.59;4843578;29;20460;-71
2022/09/13 14:33:45;;;;;;;10.30;8.83;;;;;;;22.03;100.00;99752.88;4843363;29;20473;-71
2022/09/13 14:36:18;;;;;;;10.60;9.07;;;;;;;21.98;100.00;99732.44;4843601;29;20506;-71
2022/09/13 14:38:50;;;;;;;9.40;8.27;;;;;;;22.00;100.00;99725.81;4842947;29;20465;-71
2022/09/13 14:41:19;;;;;;;13.83;10.57;;;;;;;21.69;100.00;99725.38;4843159;29;20434;-70
2022/09/13 14:43:47;;;;;;;13.03;8.70;;;;;;;21.69;100.00;99725.38;4868623;29;20447;-70
2022/09/13 14:46:20;;;;;;;12.63;10.53;;;;;;;21.89;100.00;99722.44;4901428;29;20451;-72
2022/09/13 14:48:50;;;;;;;9.97;8.37;;;;;;;21.79;100.00;99726.13;4900320;29;20493;-72
2022/09/13 14:51:23;;;;;;;10.77;8.67;;;;;;;21.75;100.00;99730.19;4901859;29;20449;-72
2022/09/13 14:53:55;;;;;;;10.03;9.07;;;;;;;21.86;100.00;99713.50;4901600;29;20494;-72
2022/09/13 14:56:31;;;;;;;10.33;9.10;;;;;;;21.89;100.00;99712.34;4901653;29;20451;-71
2022/09/13 14:59:00;;;;;;;10.30;9.17;;;;;;;21.82;100.00;99694.78;4901069;29;20474;-71
2022/09/13 15:01:29;;;;;;;13.03;9.37;;;;;;;21.82;100.00;99697.53;4902330;29;20439;-71
2022/09/13 15:03:58;;;;;;;10.10;9.10;;;;;;;21.82;100.00;99703.91;4901542;29;20447;-71
2022/09/13 15:06:26;;;;;;;10.70;9.10;;;;;;;21.91;100.00;99698.47;4901105;29;20534;-71
2022/09/13 15:08:58;;;;;;;9.50;8.60;;;;;;;21.93;100.00;99707.38;4903810;29;20490;-71
2022/09/13 15:11:31;;;;;;;9.70;8.33;;;;;;;21.83;100.00;99707.50;4902098;29;20435;-72
2022/09/13 15:14:02;;;;;;;11.03;8.77;;;;;;;21.90;100.00;99699.50;4901598;29;20490;-71
2022/09/13 15:16:31;;;;;;;10.40;8.33;;;;;;;21.71;100.00;99693.19;4902101;29;20447;-72
2022/09/13 15:19:26;;;;;;;9.80;8.80;;;;;;;21.81;100.00;99685.72;4901281;29;21009;-71
2022/09/13 15:22:02;;;;;;;11.23;10.13;;;;;;;21.71;100.00;99684.97;4901773;29;20436;-72
2022/09/13 15:24:33;;;;;;;11.70;9.30;;;;;;;21.60;100.00;99677.84;4901684;29;20439;-71
2022/09/13 15:27:05;;;;;;;9.87;8.80;;;;;;;21.70;100.00;99676.91;4902391;29;20464;-71
2022/09/13 15:29:33;;;;;;;14.10;9.20;;;;;;;21.40;100.00;99671.69;4901557;29;20495;-72
2022/09/13 15:32:00;;;;;;;11.17;10.07;;;;;;;21.45;100.00;99680.28;4902009;29;20799;-71
2022/09/13 15:34:27;;;;;;;9.63;7.90;;;;;;;21.33;100.00;99669.69;4902654;29;20959;-71
2022/09/13 15:37:08;;;;;;;10.33;8.90;;;;;;;21.30;100.00;99683.69;4901841;29;20503;-72
2022/09/13 15:39:45;;;;;;;9.50;8.50;;;;;;;21.33;100.00;99672.44;4901722;29;20427;-72
2022/09/13 15:42:12;;;;;;;10.50;8.63;;;;;;;21.34;100.00;99674.16;4901751;29;20431;-71
2022/09/13 15:44:39;;;;;;;9.53;8.53;;;;;;;21.32;100.00;99668.81;4901219;29;20458;-72
2022/09/13 15:47:10;;;;;;;13.97;8.90;;;;;;;21.35;100.00;99664.94;4900471;29;20537;-71
2022/09/13 15:49:39;;;;;;;11.50;10.30;;;;;;;21.37;100.00;99662.88;4902389;29;20474;-71
2022/09/13 15:52:06;;;;;;;11.17;8.87;;;;;;;21.33;100.00;99658.75;4901654;29;20447;-70
2022/09/13 15:54:35;;;;;;;10.87;7.70;;;;;;;21.34;100.00;99660.47;4901717;29;20454;-70
2022/09/13 15:57:06;;;;;;;9.50;8.50;;;;;;;21.37;100.00;99663.75;4901393;29;20446;-70
2022/09/13 15:59:33;;;;;;;23.90;10.13;;;;;;;21.33;100.00;99662.34;4900523;29;20455;-71
2022/09/13 16:02:01;;;;;;;9.00;8.10;;;;;;;21.36;100.00;99651.06;4900382;29;20461;-72
2022/09/13 16:04:28;;;;;;;11.40;8.63;;;;;;;21.26;100.00;99666.72;4900016;29;20459;-71
2022/09/13 16:06:55;;;;;;;11.17;10.00;;;;;;;21.24;100.00;99658.66;4901172;29;20443;-73
2022/09/13 16:09:26;;;;;;;10.83;7.77;;;;;;;21.22;100.00;99665.31;4900552;29;20505;-72
2022/09/13 16:11:52;;;;;;;9.30;8.40;;;;;;;21.28;100.00;99658.34;4901009;29;20443;-71
2022/09/13 16:14:21;;;;;;;8.13;7.33;;;;;;;21.16;100.00;99663.19;4884001;29;20457;-71
2022/09/13 16:16:47;;;;;;;12.20;8.30;;;;;;;21.06;100.00;99663.28;4900681;29;20859;-70
2022/09/13 16:19:16;;;;;;;9.70;8.20;;;;;;;20.99;100.00;99652.06;4894137;29;20467;-71
2022/09/13 16:21:43;;;;;;;10.50;8.50;;;;;;;20.98;100.00;99653.09;4894367;29;20446;-71
2022/09/13 16:24:09;;;;;;;10.30;9.10;;;;;;;20.96;100.00;99646.03;4898049;29;20979;-72
2022/09/13 16:26:36;;;;;;;10.37;8.20;;;;;;;21.00;100.00;99640.09;4900277;29;20455;-71
2022/09/13 16:29:02;;;;;;;11.57;9.90;;;;;;;21.00;100.00;99639.25;4897218;29;20498;-72
2022/09/13 16:31:31;;;;;;;14.67;10.20;;;;;;;20.97;100.00;99640.41;4897060;29;20842;-71
2022/09/13 16:33:57;;;;;;;12.13;10.27;;;;;;;21.01;100.00;99636.38;4881108;29;20448;-71
2022/09/13 16:36:27;;;;;;;197.73;113.83;;;;;;;20.90;100.00;99638.47;4882101;29;20448;-71
2022/09/13 16:38:54;;;;;;;428.30;223.77;;;;;;;20.87;100.00;99631.44;4884096;29;20515;-72
2022/09/13 16:41:21;;;;;;;102.80;49.63;;;;;;;20.86;100.00;99640.63;4882017;29;20444;-72
2022/09/13 16:43:48;;;;;;;107.20;52.23;;;;;;;20.90;100.00;99653.00;4881185;29;21032;-70
2022/09/13 16:46:14;;;;;;;29.67;18.63;;;;;;;20.93;100.00;99655.44;4880331;29;20466;-71
2022/09/13 16:48:42;;;;;;;18.33;13.23;;;;;;;20.90;100.00;99655.75;4880318;29;20495;-70
2022/09/13 16:51:10;;;;;;;33.73;21.03;;;;;;;20.78;100.00;99656.97;4881179;29;20922;-71
2022/09/13 16:53:39;;;;;;;18.97;11.80;;;;;;;20.73;100.00;99662.03;4881400;29;20842;-69
2022/09/13 16:56:06;;;;;;;10.87;9.77;;;;;;;20.71;100.00;99658.59;4880931;29;20443;-71
2022/09/13 16:58:36;;;;;;;18.40;14.10;;;;;;;20.66;100.00;99659.06;4881599;29;20563;-71
2022/09/13 17:01:04;;;;;;;12.37;9.83;;;;;;;20.58;100.00;99665.28;4881667;29;20611;-71
2022/09/13 17:03:30;;;;;;;13.50;10.83;;;;;;;20.66;100.00;99667.25;4881857;29;20443;-71
2022/09/13 17:05:59;;;;;;;13.10;9.67;;;;;;;20.68;100.00;99664.38;4882525;29;20451;-71
2022/09/13 17:08:26;;;;;;;12.40;9.77;;;;;;;20.64;100.00;99661.06;4883018;29;20523;-71
2022/09/13 17:10:52;;;;;;;18.30;9.43;;;;;;;20.56;100.00;99659.09;4883160;29;20450;-70
2022/09/13 17:13:20;;;;;;;11.60;9.77;;;;;;;20.53;100.00;99662.13;4882347;29;20436;-71
2022/09/13 17:15:47;;;;;;;14.10;9.50;;;;;;;20.51;100.00;99661.41;4895812;29;20451;-70
2022/09/13 17:18:13;;;;;;;11.60;9.90;;;;;;;20.46;100.00;99658.25;4898459;29;20467;-70
2022/09/13 17:20:44;;;;;;;12.50;10.20;;;;;;;20.44;100.00;99673.09;4898844;29;20538;-70
2022/09/13 17:23:12;;;;;;;15.57;9.90;;;;;;;20.51;100.00;99677.81;4899594;29;20518;-72
2022/09/13 17:25:42;;;;;;;11.80;9.43;;;;;;;20.53;100.00;99670.34;4899889;29;20466;-71
2022/09/13 17:28:08;;;;;;;10.80;9.70;;;;;;;20.46;100.00;99671.06;4898674;29;20471;-70
2022/09/13 17:30:36;;;;;;;15.03;12.87;;;;;;;20.40;100.00;99678.00;4899374;29;20486;-70
2022/09/13 17:33:04;;;;;;;13.47;10.53;;;;;;;20.42;100.00;99668.66;4899502;29;20849;-71
2022/09/13 17:35:31;;;;;;;11.50;10.07;;;;;;;20.46;100.00;99660.97;4899636;29;20450;-68
2022/09/13 17:37:58;;;;;;;12.63;10.63;;;;;;;20.46;100.00;99671.06;4898667;29;20471;-70
2022/09/13 17:40:26;;;;;;;13.23;11.03;;;;;;;20.49;100.00;99684.47;4899428;29;20449;-70
2022/09/13 17:42:52;;;;;;;11.43;10.27;;;;;;;20.28;100.00;99671.84;4899041;29;20451;-72
2022/09/13 17:45:19;;;;;;;14.60;11.20;;;;;;;20.26;100.00;99675.75;4899271;29;21120;-72
2022/09/13 17:47:46;;;;;;;14.27;12.80;;;;;;;20.26;100.00;99678.47;4880526;29;20559;-71
2022/09/13 17:50:13;;;;;;;16.57;11.10;;;;;;;20.19;100.00;99692.78;4881183;29;20499;-72
2022/09/13 17:52:39;;;;;;;18.30;15.20;;;;;;;20.15;100.00;99688.59;4881318;29;20447;-71
2022/09/13 17:55:07;;;;;;;29.23;22.00;;;;;;;20.11;100.00;99689.06;4880256;29;20451;-69
2022/09/13 17:57:35;;;;;;;40.50;28.73;;;;;;;20.07;100.00;99690.34;4861789;29;63748;-71
2022/09/13 18:00:02;;;;;;;58.30;50.47;;;;;;;20.10;100.00;99690.03;4862730;29;20512;-75
2022/09/13 18:02:29;;;;;;;23.50;18.77;;;;;;;20.06;100.00;99683.16;4858621;29;20468;-73
2022/09/13 18:04:56;;;;;;;16.83;14.27;;;;;;;20.06;100.00;99677.69;4844542;29;20559;-74
2022/09/13 18:07:23;;;;;;;12.77;11.47;;;;;;;20.05;100.00;99687.75;4860928;29;20841;-73
2022/09/13 18:09:50;;;;;;;13.30;11.90;;;;;;;19.89;100.00;99684.78;4827774;29;20584;-73
2022/09/13 18:12:16;;;;;;;16.17;12.27;;;;;;;19.82;100.00;99695.44;4854438;29;20452;-73
2022/09/13 18:14:44;;;;;;;13.00;10.03;;;;;;;19.69;100.00;99711.25;4860657;29;20484;-74
2022/09/13 18:17:12;;;;;;;11.50;10.50;;;;;;;19.62;100.00;99705.47;4850693;29;20487;-74
2022/09/13 18:19:39;;;;;;;16.23;13.20;;;;;;;19.61;100.00;99692.84;4849143;29;20442;-77
2022/09/13 18:22:06;;;;;;;13.43;12.10;;;;;;;19.64;100.00;99697.16;4864103;29;20454;-75
2022/09/13 18:24:33;;;;;;;12.97;11.60;;;;;;;19.70;100.00;99694.72;4863123;29;20524;-74
2022/09/13 18:27:00;;;;;;;13.47;12.07;;;;;;;19.69;100.00;99693.00;4864499;29;20448;-74
2022/09/13 18:29:27;;;;;;;13.90;11.10;;;;;;;19.68;100.00;99684.94;4864440;29;20484;-73
2022/09/13 18:31:55;;;;;;;14.77;11.95;;;;;;;19.71;100.00;99685.53;4864594;29;20908;-74
2022/09/13 18:34:22;;;;;;;15.60;12.10;;;;;;;19.69;100.00;99679.34;4848069;29;20218;-75
2022/09/13 18:36:49;;;;;;;13.73;12.20;;;;;;;19.70;100.00;99682.97;4853427;29;20529;-72
2022/09/13 18:39:17;;;;;;;18.60;13.87;;;;;;;19.73;100.00;99680.78;4831508;29;20477;-74
2022/09/13 18:41:45;;;;;;;41.77;32.53;;;;;;;19.72;100.00;99675.47;4855652;29;20448;-74
2022/09/13 18:44:13;;;;;;;24.20;18.53;;;;;;;19.65;100.00;99674.28;4864632;29;20453;-72
2022/09/13 18:46:41;;;;;;;15.70;14.10;;;;;;;19.58;100.00;99669.41;4849683;29;20557;-73
2022/09/13 18:49:10;;;;;;;14.53;12.33;;;;;;;19.57;100.00;99681.34;4857476;29;20559;-72
2022/09/13 18:51:40;;;;;;;15.57;12.70;;;;;;;19.56;100.00;99686.97;4845639;29;20956;-74
2022/09/13 18:54:10;;;;;;;17.43;11.50;;;;;;;19.58;100.00;99693.13;4882718;23;20504;-72
2022/09/13 18:56:37;;;;;;;15.13;13.00;;;;;;;19.50;100.00;99693.84;4863856;29;20541;-71
2022/09/13 18:59:06;;;;;;;15.15;13.55;;;;;;;19.35;100.00;99698.00;4866064;29;20484;-71
2022/09/13 19:01:35;;;;;;;17.47;13.43;;;;;;;19.40;100.00;99692.97;4865322;29;20280;-73
2022/09/13 19:04:05;;;;;;;15.70;13.20;;;;;;;19.43;100.00;99686.38;4853805;29;20473;-73
2022/09/13 19:06:35;;;;;;;14.93;13.50;;;;;;;19.48;100.00;99693.13;4856381;29;20445;-72
2022/09/13 19:09:02;;;;;;;15.77;14.10;;;;;;;19.53;100.00;99684.50;4858153;29;20450;-73
2022/09/13 19:11:34;;;;;;;16.95;14.30;;;;;;;19.53;100.00;99693.56;4869815;29;20212;-75
2022/09/13 19:14:01;;;;;;;18.10;14.23;;;;;;;19.52;100.00;99690.97;4859777;29;20279;-72
2022/09/13 19:16:28;;;;;;;16.27;14.50;;;;;;;19.42;100.00;99701.03;4865080;29;21011;-72
2022/09/13 19:18:56;;;;;;;16.58;14.82;;;;;;;19.35;100.00;99709.78;4868017;29;20307;-75
2022/09/13 19:21:28;;;;;;;26.35;20.42;;;;;;;19.36;100.00;99711.53;4855452;29;20308;-73
2022/09/13 19:23:57;;;;;;;25.15;21.90;;;;;;;19.38;100.00;99708.66;4854140;29;20938;-72